Time;durP1;ratioP1;P1;durP2;ratioP2;P2;SDS_P1;SDS_P2;PMS_P1;PMS_P2;Temp;Humidity;BMP_temperature;BMP_pressure;BME280_temperature;BME280_humidity;BME280_pressure;Samples;Min_cycle;Max_cycle;Signal;HPM_P1;HPM_P2
2021/12/24 00:00:41;;;;;;;313.67;73.90;;;5.70;99.90;;;;;;5030947;28;20440;-69
2021/12/24 00:03:08;;;;;;;252.60;65.40;;;5.70;99.90;;;;;;5032406;28;20053;-69
2021/12/24 00:05:35;;;;;;;272.87;69.03;;;5.70;99.90;;;;;;5035090;28;20053;-69
2021/12/24 00:08:02;;;;;;;370.67;74.53;;;5.70;99.90;;;;;;5026667;28;20426;-70
2021/12/24 00:10:30;;;;;;;361.27;74.97;;;5.80;99.90;;;;;;5033204;28;20051;-70
2021/12/24 00:13:03;;;;;;;348.80;74.70;;;5.80;99.90;;;;;;5015210;28;20041;-70
2021/12/24 00:18:03;;;;;;;340.83;72.87;;;5.80;99.90;;;;;;5046108;28;20055;-70
2021/12/24 00:35:02;;;;;;;518.27;87.53;;;5.80;99.90;;;;;;5039195;28;20053;-70
2021/12/24 00:36:41;;;;;;;405.47;74.43;;;6.00;99.90;;;;;;5025995;28;20049;-70
2021/12/24 00:39:10;;;;;;;222.47;58.17;;;6.00;99.90;;;;;;5027354;28;20052;-70
2021/12/24 00:41:36;;;;;;;289.20;66.40;;;6.00;99.90;;;;;;5006179;28;20041;-70
2021/12/24 00:44:02;;;;;;;202.17;55.33;;;6.10;99.90;;;;;;5028551;28;20037;-70
2021/12/24 00:46:29;;;;;;;238.87;56.90;;;6.10;99.90;;;;;;5043562;28;20045;-70
2021/12/24 00:48:57;;;;;;;171.57;49.83;;;6.10;99.90;;;;;;5011120;28;20052;-70
2021/12/24 00:51:31;;;;;;;208.13;52.37;;;6.20;99.90;;;;;;5054830;28;20052;-70
2021/12/24 00:56:44;;;;;;;125.33;43.93;;;6.20;99.90;;;;;;5025120;28;20136;-70
2021/12/24 00:59:10;;;;;;;178.03;49.83;;;6.20;99.90;;;;;;5026350;28;20124;-69
2021/12/24 01:01:35;;;;;;;164.33;47.37;;;6.30;99.90;;;;;;5029943;28;20041;-70
2021/12/24 01:04:01;;;;;;;145.00;46.83;;;6.30;99.90;;;;;;5046696;28;20056;-70
2021/12/24 01:06:27;;;;;;;137.80;44.90;;;6.30;99.90;;;;;;5022610;28;20048;-70
2021/12/24 01:08:53;;;;;;;149.20;44.70;;;6.40;99.90;;;;;;5047022;28;20052;-70
2021/12/24 01:11:20;;;;;;;197.23;50.30;;;6.40;99.90;;;;;;5013207;28;20528;-70
2021/12/24 01:13:46;;;;;;;134.50;42.03;;;6.50;99.90;;;;;;5030176;28;20088;-69
2021/12/24 01:16:24;;;;;;;124.13;40.13;;;6.40;99.90;;;;;;5012104;28;20076;-70
2021/12/24 01:24:06;;;;;;;133.80;40.33;;;6.50;99.90;;;;;;5046737;28;20061;-69
2021/12/24 01:42:53;;;;;;;110.70;36.93;;;6.70;99.90;;;;;;5025106;28;20056;-70
2021/12/24 01:45:28;;;;;;;76.87;30.93;;;6.80;99.90;;;;;;5031858;28;20041;-71
2021/12/24 01:47:57;;;;;;;88.53;31.53;;;6.70;99.90;;;;;;5045243;28;20452;-70
2021/12/24 01:50:30;;;;;;;79.67;30.37;;;6.80;99.90;;;;;;5044874;28;20049;-71
2021/12/24 01:52:56;;;;;;;70.88;29.35;;;6.80;99.90;;;;;;5044698;28;20183;-70
2021/12/24 01:55:23;;;;;;;72.10;29.33;;;6.80;99.90;;;;;;5025569;28;20192;-70
2021/12/24 01:57:50;;;;;;;91.60;31.10;;;6.80;99.90;;;;;;5044285;28;20060;-70
2021/12/24 02:00:22;;;;;;;84.60;30.43;;;6.80;99.90;;;;;;5028067;28;20442;-70
2021/12/24 02:02:48;;;;;;;94.93;33.53;;;6.80;99.90;;;;;;5038393;28;20041;-70
2021/12/24 02:05:15;;;;;;;74.50;29.65;;;6.90;99.90;;;;;;5020200;28;20043;-70
2021/12/24 02:07:41;;;;;;;78.60;30.00;;;6.90;99.90;;;;;;5044449;28;20063;-70
2021/12/24 02:10:09;;;;;;;83.00;31.30;;;6.90;99.90;;;;;;5027479;28;20044;-70
2021/12/24 02:12:36;;;;;;;96.93;31.48;;;6.90;99.90;;;;;;5044654;28;20102;-70
2021/12/24 02:15:05;;;;;;;78.47;29.02;;;6.90;99.90;;;;;;5027420;28;20133;-70
2021/12/24 02:28:38;;;;;;;99.10;32.13;;;6.90;99.90;;;;;;5044052;28;20049;-70
2021/12/24 02:31:17;;;;;;;105.85;32.97;;;7.00;99.90;;;;;;5026472;28;20088;-70
2021/12/24 02:33:43;;;;;;;98.35;30.25;;;7.00;99.90;;;;;;5027947;28;20084;-70
2021/12/24 02:36:09;;;;;;;93.47;31.67;;;7.00;99.90;;;;;;5044178;28;20049;-70
2021/12/24 02:38:36;;;;;;;83.43;29.75;;;7.00;99.90;;;;;;5027364;28;20041;-71
2021/12/24 02:41:02;;;;;;;79.70;29.20;;;7.00;99.90;;;;;;5042510;28;20312;-70
2021/12/24 02:43:29;;;;;;;77.13;29.20;;;7.10;99.90;;;;;;5043850;28;20064;-70
2021/12/24 02:46:06;;;;;;;77.88;29.23;;;7.00;99.90;;;;;;5044280;28;20084;-70
2021/12/24 02:54:02;;;;;;;58.95;24.85;;;7.20;99.90;;;;;;5029513;28;20053;-71
2021/12/24 02:56:34;;;;;;;69.13;25.58;;;7.20;99.90;;;;;;5027199;28;20419;-71
2021/12/24 02:59:03;;;;;;;53.83;22.88;;;7.30;99.90;;;;;;5043675;28;20048;-71
2021/12/24 03:01:37;;;;;;;43.70;21.35;;;7.30;99.90;;;;;;5018034;28;20659;-71
2021/12/24 03:04:04;;;;;;;37.97;19.95;;;7.40;99.90;;;;;;5042750;28;20044;-71
2021/12/24 03:06:33;;;;;;;47.13;21.30;;;7.40;99.90;;;;;;5028432;28;20053;-71
2021/12/24 03:09:05;;;;;;;35.13;18.95;;;7.50;99.90;;;;;;5046158;28;20049;-72
2021/12/24 03:11:32;;;;;;;41.72;18.65;;;7.60;99.90;;;;;;5032165;28;20231;-71
2021/12/24 03:13:57;;;;;;;55.08;21.63;;;7.70;99.90;;;;;;5014770;28;20458;-71
2021/12/24 03:16:23;;;;;;;61.28;24.00;;;7.90;99.90;;;;;;5029063;28;20033;-71
2021/12/24 03:18:50;;;;;;;70.00;24.05;;;7.90;99.90;;;;;;5046721;28;20135;-71
2021/12/24 03:21:32;;;;;;;55.10;22.25;;;8.00;99.90;;;;;;5046025;28;20055;-70
2021/12/24 03:26:31;;;;;;;60.28;24.85;;;8.30;99.90;;;;;;5031089;28;20049;-70
2021/12/24 03:28:56;;;;;;;60.97;24.77;;;8.30;99.90;;;;;;5046774;28;20467;-70
2021/12/24 03:31:22;;;;;;;54.00;23.42;;;8.40;99.90;;;;;;5044617;28;20157;-70
2021/12/24 03:33:53;;;;;;;61.17;24.33;;;8.40;99.90;;;;;;5030333;28;20091;-70
2021/12/24 03:36:21;;;;;;;62.20;25.10;;;8.50;99.90;;;;;;5045780;28;20076;-71
2021/12/24 03:38:48;;;;;;;68.88;26.02;;;8.50;99.90;;;;;;5046423;28;20313;-71
2021/12/24 03:41:14;;;;;;;66.40;25.15;;;8.50;99.90;;;;;;5011522;28;20391;-70
2021/12/24 03:43:40;;;;;;;68.63;25.20;;;8.50;99.90;;;;;;5047656;28;20064;-71
2021/12/24 03:46:11;;;;;;;63.33;23.73;;;8.60;99.90;;;;;;5047205;28;20048;-71
2021/12/24 03:48:58;;;;;;;66.45;25.90;;;8.70;99.90;;;;;;5014947;28;20067;-71
2021/12/24 03:51:44;;;;;;;64.97;25.15;;;8.70;99.90;;;;;;5016503;28;20052;-71
2021/12/24 03:56:54;;;;;;;54.03;21.42;;;8.70;99.90;;;;;;5031076;28;20079;-71
2021/12/24 03:59:20;;;;;;;62.35;22.80;;;8.80;99.90;;;;;;5028901;28;20033;-71
2021/12/24 04:01:46;;;;;;;62.20;24.27;;;8.80;99.90;;;;;;5044600;28;20052;-70
2021/12/24 04:04:12;;;;;;;62.92;22.30;;;8.80;99.90;;;;;;5028818;28;20036;-70
2021/12/24 04:06:38;;;;;;;71.22;26.65;;;8.80;99.90;;;;;;5030043;28;20118;-70
2021/12/24 04:09:06;;;;;;;74.55;27.58;;;8.80;99.90;;;;;;5013885;28;20056;-70
2021/12/24 04:11:32;;;;;;;61.40;24.65;;;8.80;99.90;;;;;;5045736;28;20037;-70
2021/12/24 04:13:59;;;;;;;54.33;22.55;;;8.80;99.90;;;;;;5029060;28;20736;-70
2021/12/24 04:16:25;;;;;;;56.80;25.20;;;8.80;99.90;;;;;;5043622;28;20537;-70
2021/12/24 04:26:49;;;;;;;77.78;30.90;;;8.80;99.90;;;;;;5031856;28;20499;-71
2021/12/24 04:29:15;;;;;;;86.90;32.25;;;8.90;99.90;;;;;;5042144;28;20056;-71
2021/12/24 04:31:45;;;;;;;82.93;33.58;;;8.90;99.90;;;;;;5042960;28;20049;-71
2021/12/24 04:34:13;;;;;;;89.93;33.10;;;8.90;99.90;;;;;;5045313;28;20049;-71
2021/12/24 04:37:12;;;;;;;74.43;32.08;;;8.90;99.90;;;;;;5029480;28;20087;-71
2021/12/24 04:39:55;;;;;;;67.32;30.50;;;8.90;99.90;;;;;;5044345;28;20041;-72
2021/12/24 05:01:30;;;;;;;80.40;33.60;;;8.90;99.90;;;;;;5039933;28;20454;-70
2021/12/24 05:03:58;;;;;;;68.35;32.38;;;8.90;99.90;;;;;;5032639;28;20480;-70
2021/12/24 05:11:17;;;;;;;72.97;34.70;;;8.90;99.90;;;;;;5029051;28;20048;-70
2021/12/24 05:13:43;;;;;;;64.45;32.97;;;8.90;99.90;;;;;;5047093;28;20056;-70
2021/12/24 05:21:33;;;;;;;73.35;32.00;;;8.90;99.90;;;;;;4999262;28;20057;-71
2021/12/24 05:24:07;;;;;;;55.10;29.15;;;8.80;99.90;;;;;;5044573;28;20052;-70
2021/12/24 05:26:34;;;;;;;61.97;30.50;;;8.90;99.90;;;;;;5027865;28;20045;-70
2021/12/24 05:29:01;;;;;;;61.65;30.67;;;8.90;99.90;;;;;;5028399;28;20041;-71
2021/12/24 05:31:29;;;;;;;63.75;32.42;;;8.90;99.90;;;;;;5038031;28;20036;-70
2021/12/24 05:33:55;;;;;;;59.00;31.48;;;8.90;99.90;;;;;;5010538;28;20412;-70
2021/12/24 05:36:21;;;;;;;54.72;30.48;;;8.90;99.90;;;;;;5008926;28;20506;-70
2021/12/24 05:38:47;;;;;;;75.90;34.58;;;8.90;99.90;;;;;;4993545;28;20132;-70
2021/12/24 05:41:13;;;;;;;67.25;32.05;;;8.90;99.90;;;;;;5009011;28;20299;-70
2021/12/24 05:43:39;;;;;;;68.63;32.28;;;8.90;99.90;;;;;;5009376;28;20115;-70
2021/12/24 05:46:06;;;;;;;64.32;32.13;;;8.90;99.90;;;;;;5009390;28;20046;-70
2021/12/24 05:48:32;;;;;;;59.25;28.67;;;8.90;99.90;;;;;;5009573;28;20052;-71
2021/12/24 05:50:57;;;;;;;63.55;31.25;;;8.90;99.90;;;;;;5026113;28;20049;-69
2021/12/24 05:53:25;;;;;;;64.75;30.67;;;8.90;99.90;;;;;;5009080;28;20510;-70
2021/12/24 05:55:50;;;;;;;54.85;26.40;;;8.90;99.90;;;;;;5029788;28;20515;-70
2021/12/24 05:58:17;;;;;;;57.20;25.95;;;8.90;99.90;;;;;;5045808;28;20116;-70
2021/12/24 06:00:43;;;;;;;48.03;25.23;;;8.90;99.90;;;;;;5025506;28;20457;-70
2021/12/24 06:03:13;;;;;;;40.85;22.80;;;8.90;99.90;;;;;;5054547;28;20072;-70
2021/12/24 06:05:38;;;;;;;50.47;23.48;;;8.90;99.90;;;;;;5046840;28;20053;-70
2021/12/24 06:08:05;;;;;;;48.72;24.38;;;8.90;99.90;;;;;;5046479;28;20048;-71
2021/12/24 06:10:32;;;;;;;46.70;22.45;;;8.90;99.90;;;;;;5012871;28;20088;-71
2021/12/24 06:13:02;;;;;;;44.63;21.58;;;8.90;99.90;;;;;;5030114;28;20583;-70
2021/12/24 06:15:56;;;;;;;36.72;18.85;;;8.90;99.90;;;;;;5045223;28;20084;-69
2021/12/24 06:18:25;;;;;;;38.20;19.48;;;8.90;99.90;;;;;;5045761;28;20049;-70
2021/12/24 06:20:53;;;;;;;41.75;20.13;;;8.90;99.90;;;;;;5029668;28;20066;-70
2021/12/24 06:23:21;;;;;;;47.45;20.02;;;8.90;99.90;;;;;;5029948;28;20075;-70
2021/12/24 06:25:50;;;;;;;38.28;20.55;;;8.90;99.90;;;;;;5030131;28;20759;-70
2021/12/24 06:28:17;;;;;;;39.63;19.85;;;8.90;99.90;;;;;;5029120;28;20507;-70
2021/12/24 06:30:43;;;;;;;40.00;18.30;;;8.90;99.90;;;;;;5028274;28;20130;-70
2021/12/24 06:33:09;;;;;;;33.63;17.65;;;8.80;99.90;;;;;;5046859;28;20072;-70
2021/12/24 06:35:36;;;;;;;39.15;19.27;;;8.90;99.90;;;;;;5045647;28;20060;-70
2021/12/24 06:38:02;;;;;;;34.88;18.27;;;8.90;99.90;;;;;;5029558;28;20130;-70
2021/12/24 06:40:31;;;;;;;37.50;19.42;;;8.90;99.90;;;;;;5038847;28;20040;-70
2021/12/24 06:42:57;;;;;;;35.50;17.10;;;8.90;99.90;;;;;;5010871;28;20500;-70
2021/12/24 06:45:24;;;;;;;41.80;20.23;;;8.90;99.90;;;;;;5013054;28;20055;-70
2021/12/24 06:47:51;;;;;;;39.75;18.90;;;8.90;99.90;;;;;;5013958;28;20045;-70
2021/12/24 06:50:17;;;;;;;29.60;16.70;;;8.90;99.90;;;;;;5029470;28;20429;-70
2021/12/24 06:52:43;;;;;;;31.15;17.70;;;8.80;99.90;;;;;;5013143;28;20049;-70
2021/12/24 06:55:10;;;;;;;32.97;17.85;;;8.80;99.90;;;;;;5025824;28;20513;-71
2021/12/24 06:57:38;;;;;;;38.10;17.42;;;8.80;99.90;;;;;;5048684;28;20051;-70
2021/12/24 07:00:05;;;;;;;41.58;17.92;;;8.80;99.90;;;;;;5032627;28;20037;-71
2021/12/24 07:02:31;;;;;;;42.03;18.00;;;8.80;99.90;;;;;;5005368;28;20043;-71
2021/12/24 07:04:56;;;;;;;36.78;15.93;;;8.80;99.90;;;;;;5028659;28;20128;-71
2021/12/24 07:07:22;;;;;;;33.10;15.63;;;8.70;99.90;;;;;;5011952;28;20037;-71
2021/12/24 07:09:48;;;;;;;36.30;16.90;;;8.70;99.90;;;;;;5029087;28;20045;-71
2021/12/24 07:12:14;;;;;;;34.33;17.17;;;8.70;99.90;;;;;;5046029;28;20037;-71
2021/12/24 07:14:41;;;;;;;38.92;16.80;;;8.70;99.90;;;;;;5064753;28;20858;-71
2021/12/24 07:17:08;;;;;;;32.53;15.45;;;8.70;99.90;;;;;;5031925;28;20551;-71
2021/12/24 07:19:35;;;;;;;31.60;15.50;;;8.70;99.90;;;;;;5013166;28;20050;-71
2021/12/24 07:22:04;;;;;;;33.05;16.02;;;8.60;99.90;;;;;;5046116;28;20065;-71
2021/12/24 07:24:30;;;;;;;28.05;14.77;;;8.60;99.90;;;;;;5045515;28;20136;-71
2021/12/24 07:26:56;;;;;;;33.92;16.00;;;8.60;99.90;;;;;;5014525;28;20445;-71
2021/12/24 07:29:22;;;;;;;32.22;13.70;;;8.60;99.90;;;;;;5049418;28;20056;-70
2021/12/24 07:31:48;;;;;;;31.23;14.85;;;8.60;99.90;;;;;;5011617;28;20481;-71
2021/12/24 07:34:16;;;;;;;28.88;13.75;;;8.60;99.90;;;;;;5012828;28;20106;-72
2021/12/24 07:36:42;;;;;;;32.97;14.65;;;8.60;99.90;;;;;;5029038;28;20045;-72
2021/12/24 07:39:08;;;;;;;29.40;12.55;;;8.60;99.90;;;;;;5028729;28;20073;-69
2021/12/24 07:41:34;;;;;;;28.00;12.65;;;8.50;99.90;;;;;;5011243;28;20052;-69
2021/12/24 07:44:01;;;;;;;32.20;13.05;;;8.60;99.90;;;;;;5012222;28;20056;-70
2021/12/24 07:46:34;;;;;;;26.35;12.43;;;8.50;99.90;;;;;;5011851;28;20037;-69
2021/12/24 07:49:12;;;;;;;22.65;11.93;;;8.50;99.90;;;;;;5029621;28;20046;-71
2021/12/24 07:54:22;;;;;;;33.90;12.05;;;8.50;99.90;;;;;;5020298;28;20053;-70
2021/12/24 07:56:48;;;;;;;25.60;11.68;;;8.50;99.90;;;;;;5011362;28;20633;-70
2021/12/24 07:59:15;;;;;;;26.23;11.02;;;8.50;99.90;;;;;;5046494;28;20065;-70
2021/12/24 08:01:45;;;;;;;26.17;11.77;;;8.50;99.90;;;;;;5029323;28;20500;-71
2021/12/24 08:04:11;;;;;;;22.47;10.77;;;8.50;99.90;;;;;;5030437;28;20105;-74
2021/12/24 08:06:38;;;;;;;19.83;9.70;;;8.50;99.90;;;;;;5024602;28;20048;-74
2021/12/24 08:09:08;;;;;;;25.98;10.57;;;8.50;99.90;;;;;;5008965;28;20033;-70
2021/12/24 08:11:35;;;;;;;22.20;9.82;;;8.50;99.90;;;;;;5043405;28;20125;-70
2021/12/24 08:14:01;;;;;;;23.45;10.05;;;8.50;99.90;;;;;;5045901;28;20589;-71
2021/12/24 08:16:29;;;;;;;21.90;10.80;;;8.60;99.90;;;;;;5028226;28;20033;-70
2021/12/24 08:18:55;;;;;;;25.02;10.10;;;8.50;99.90;;;;;;5027637;28;20062;-70
2021/12/24 08:21:22;;;;;;;22.48;10.05;;;8.50;99.90;;;;;;5045295;28;20057;-70
2021/12/24 08:23:49;;;;;;;30.73;11.07;;;8.50;99.90;;;;;;5028885;28;20441;-71
2021/12/24 08:26:15;;;;;;;31.77;10.50;;;8.50;99.90;;;;;;5041952;28;20487;-71
2021/12/24 08:28:42;;;;;;;28.63;11.35;;;8.50;99.90;;;;;;5045798;28;20052;-74
2021/12/24 08:31:07;;;;;;;26.50;10.30;;;8.60;99.90;;;;;;5044026;28;20459;-74
2021/12/24 08:33:34;;;;;;;26.20;10.38;;;8.60;99.90;;;;;;5012684;28;20036;-74
2021/12/24 08:36:02;;;;;;;25.50;10.30;;;8.60;99.90;;;;;;5013276;28;20138;-74
2021/12/24 08:38:31;;;;;;;25.77;10.90;;;8.50;99.90;;;;;;5028556;28;20056;-74
2021/12/24 08:40:57;;;;;;;26.05;9.75;;;8.60;99.90;;;;;;5027348;28;20048;-74
2021/12/24 08:43:23;;;;;;;26.15;9.35;;;8.60;99.90;;;;;;5036710;28;20571;-74
2021/12/24 08:45:49;;;;;;;25.35;9.85;;;8.60;99.90;;;;;;5032839;28;20379;-71
2021/12/24 08:48:16;;;;;;;31.60;9.93;;;8.60;99.90;;;;;;5034316;28;20069;-71
2021/12/24 08:50:41;;;;;;;30.45;10.27;;;8.60;99.90;;;;;;5032694;28;20040;-71
2021/12/24 08:53:07;;;;;;;29.35;10.00;;;8.60;99.90;;;;;;5032195;28;20447;-71
2021/12/24 08:55:35;;;;;;;27.05;10.35;;;8.50;99.90;;;;;;5035114;28;20033;-71
2021/12/24 08:58:02;;;;;;;28.98;10.80;;;8.60;99.90;;;;;;5033581;28;20049;-71
2021/12/24 09:00:29;;;;;;;29.98;9.40;;;8.50;99.90;;;;;;5047926;28;20104;-71
2021/12/24 09:02:56;;;;;;;32.28;10.68;;;8.60;99.90;;;;;;5016722;28;20045;-71
2021/12/24 09:05:24;;;;;;;36.80;9.95;;;8.60;99.90;;;;;;5032015;28;20053;-71
2021/12/24 09:07:50;;;;;;;23.35;9.20;;;8.60;99.90;;;;;;5030726;28;20048;-71
2021/12/24 09:10:17;;;;;;;31.10;9.73;;;8.60;99.90;;;;;;5017431;28;20503;-72
2021/12/24 09:12:43;;;;;;;32.30;8.75;;;8.60;99.90;;;;;;5037488;28;21572;-71
2021/12/24 09:15:12;;;;;;;32.42;9.57;;;8.60;99.90;;;;;;5043438;28;20152;-70
2021/12/24 09:17:43;;;;;;;30.48;9.43;;;8.60;99.90;;;;;;5043943;28;20170;-71
2021/12/24 09:20:12;;;;;;;23.70;8.98;;;8.60;99.90;;;;;;5009630;28;20045;-71
2021/12/24 09:22:40;;;;;;;27.08;8.90;;;8.60;99.90;;;;;;5027219;28;20060;-71
2021/12/24 09:25:06;;;;;;;31.60;8.35;;;8.60;99.90;;;;;;5045456;28;20045;-71
2021/12/24 09:27:32;;;;;;;25.75;9.38;;;8.60;99.90;;;;;;5045123;28;20036;-71
2021/12/24 09:30:01;;;;;;;26.42;9.35;;;8.60;99.90;;;;;;5037911;28;20042;-72
2021/12/24 09:32:29;;;;;;;31.92;9.63;;;8.60;99.90;;;;;;5008059;28;20090;-71
2021/12/24 09:34:55;;;;;;;25.50;9.57;;;8.60;99.90;;;;;;5041778;28;20052;-72
2021/12/24 09:37:21;;;;;;;24.40;9.05;;;8.60;99.90;;;;;;5041532;28;20045;-71
2021/12/24 09:39:47;;;;;;;31.48;10.35;;;8.60;99.90;;;;;;5024889;28;20037;-72
2021/12/24 09:42:13;;;;;;;31.08;10.32;;;8.70;99.90;;;;;;5026351;28;20142;-71
2021/12/24 09:44:39;;;;;;;23.80;8.73;;;8.70;99.90;;;;;;5028243;28;20040;-71
2021/12/24 09:47:05;;;;;;;31.65;9.35;;;8.60;99.90;;;;;;5027556;28;20049;-71
2021/12/24 09:49:31;;;;;;;29.23;10.48;;;8.60;99.90;;;;;;5027773;28;20525;-71
2021/12/24 09:52:00;;;;;;;28.05;10.25;;;8.60;99.90;;;;;;5006689;28;20411;-71
2021/12/24 09:54:26;;;;;;;29.30;9.73;;;8.60;99.90;;;;;;5026836;28;20037;-71
2021/12/24 09:56:56;;;;;;;30.05;9.10;;;8.60;99.90;;;;;;5023581;28;20056;-71
2021/12/24 09:59:22;;;;;;;28.35;9.70;;;8.60;99.90;;;;;;5025316;28;20384;-71
2021/12/24 10:01:56;;;;;;;29.58;9.60;;;8.70;99.90;;;;;;5026436;28;20044;-70
2021/12/24 10:04:25;;;;;;;24.80;9.32;;;8.70;99.90;;;;;;5037765;28;20053;-70
2021/12/24 10:06:54;;;;;;;27.73;9.77;;;8.70;99.90;;;;;;5054197;28;20048;-71
2021/12/24 10:09:49;;;;;;;34.72;9.88;;;8.70;99.90;;;;;;5024921;28;20484;-71
2021/12/24 10:12:24;;;;;;;23.92;8.80;;;8.70;99.90;;;;;;5033029;28;20056;-70
2021/12/24 10:14:57;;;;;;;28.67;9.70;;;8.70;99.90;;;;;;5041304;28;20044;-70
2021/12/24 10:17:35;;;;;;;31.90;9.50;;;8.70;99.90;;;;;;5039736;28;20037;-71
2021/12/24 10:20:21;;;;;;;27.33;10.07;;;8.70;99.90;;;;;;5040884;28;20033;-70
2021/12/24 10:22:49;;;;;;;25.33;11.10;;;8.70;99.90;;;;;;5024889;28;20077;-70
2021/12/24 10:25:16;;;;;;;32.30;11.30;;;8.70;99.90;;;;;;5044456;28;20072;-70
2021/12/24 10:27:43;;;;;;;32.72;11.75;;;8.70;99.90;;;;;;5044161;28;20051;-70
2021/12/24 10:30:22;;;;;;;24.90;10.30;;;8.70;99.90;;;;;;5041098;28;20037;-70
2021/12/24 10:32:55;;;;;;;30.23;10.38;;;8.70;99.90;;;;;;5027405;28;20037;-70
2021/12/24 10:35:26;;;;;;;23.85;10.32;;;8.60;99.90;;;;;;5015530;28;20451;-70
2021/12/24 10:38:11;;;;;;;29.85;10.48;;;8.70;99.90;;;;;;5032012;28;20045;-73
2021/12/24 10:40:48;;;;;;;33.45;12.05;;;8.70;99.90;;;;;;5028833;28;21855;-74
2021/12/24 10:43:27;;;;;;;37.28;12.15;;;8.70;99.90;;;;;;5035614;28;20101;-74
2021/12/24 10:46:10;;;;;;;31.17;12.52;;;8.60;99.90;;;;;;5026511;28;20048;-74
2021/12/24 10:48:38;;;;;;;36.28;14.18;;;8.60;99.90;;;;;;5025528;28;20098;-74
2021/12/24 10:51:07;;;;;;;37.05;14.07;;;8.60;99.90;;;;;;5026471;28;20044;-74
2021/12/24 10:54:02;;;;;;;27.55;11.77;;;8.50;99.90;;;;;;5040528;28;20068;-73
2021/12/24 10:56:31;;;;;;;23.20;11.30;;;8.60;99.90;;;;;;5037336;28;20067;-74
2021/12/24 10:58:57;;;;;;;21.30;7.15;;;8.70;99.90;;;;;;5050193;28;20385;-73
2021/12/24 11:01:23;;;;;;;14.30;6.53;;;8.60;99.90;;;;;;5054121;28;20037;-74
2021/12/24 11:03:49;;;;;;;18.65;6.45;;;8.60;99.90;;;;;;5024843;28;20519;-73
2021/12/24 11:06:16;;;;;;;15.60;5.60;;;8.60;99.90;;;;;;5040748;28;20091;-74
2021/12/24 11:08:43;;;;;;;17.35;6.22;;;8.60;99.90;;;;;;5033798;28;20488;-74
2021/12/24 11:11:17;;;;;;;14.27;5.90;;;8.60;99.90;;;;;;5022580;28;20490;-74
2021/12/24 11:13:45;;;;;;;15.70;5.78;;;8.60;99.90;;;;;;5023261;28;20187;-74
2021/12/24 11:16:16;;;;;;;4.75;2.58;;;8.60;99.90;;;;;;5040693;28;20048;-75
2021/12/24 11:18:46;;;;;;;4.35;2.38;;;8.50;99.90;;;;;;5054913;28;20387;-75
2021/12/24 11:21:18;;;;;;;2.70;2.05;;;8.20;99.90;;;;;;5036878;28;20049;-75
2021/12/24 11:23:44;;;;;;;2.78;1.98;;;8.00;99.90;;;;;;5030098;28;20064;-75
2021/12/24 11:26:18;;;;;;;3.88;1.95;;;7.70;99.90;;;;;;5026791;28;20083;-75
2021/12/24 11:28:45;;;;;;;3.22;2.17;;;7.60;99.90;;;;;;5040943;28;20053;-75
2021/12/24 11:31:13;;;;;;;3.15;2.20;;;7.40;99.90;;;;;;5026784;28;20254;-74
2021/12/24 11:33:42;;;;;;;3.55;2.65;;;7.30;99.90;;;;;;5029027;28;20057;-76
2021/12/24 11:36:10;;;;;;;3.33;2.40;;;7.20;99.90;;;;;;5012921;28;20064;-76
2021/12/24 11:38:39;;;;;;;3.92;2.47;;;7.20;99.90;;;;;;5026744;28;20087;-76
2021/12/24 11:41:11;;;;;;;3.92;2.33;;;7.10;99.90;;;;;;5037151;28;20538;-76
2021/12/24 11:43:39;;;;;;;3.42;2.78;;;7.10;99.90;;;;;;5021943;28;20103;-75
2021/12/24 11:46:10;;;;;;;4.40;2.78;;;7.10;99.90;;;;;;5038497;28;20049;-71
2021/12/24 11:48:37;;;;;;;3.50;2.90;;;6.90;99.90;;;;;;5047006;28;20083;-71
2021/12/24 11:51:28;;;;;;;3.80;3.03;;;6.90;99.90;;;;;;5031455;28;20071;-71
2021/12/24 11:54:00;;;;;;;4.00;3.35;;;6.80;99.90;;;;;;5030606;28;20448;-70
2021/12/24 11:56:26;;;;;;;5.53;3.50;;;6.80;99.90;;;;;;5028958;28;20095;-71
2021/12/24 11:58:57;;;;;;;4.47;3.30;;;6.80;99.90;;;;;;5029686;28;20044;-75
2021/12/24 12:01:36;;;;;;;4.65;3.72;;;6.80;99.90;;;;;;5027425;28;20460;-75
2021/12/24 12:04:12;;;;;;;4.35;3.63;;;6.70;99.90;;;;;;5035719;28;20049;-75
2021/12/24 12:06:38;;;;;;;3.80;3.38;;;6.70;99.90;;;;;;5025476;28;20037;-75
2021/12/24 12:09:08;;;;;;;5.53;3.80;;;6.60;99.90;;;;;;5019465;28;20060;-75
2021/12/24 12:11:36;;;;;;;4.30;3.63;;;6.60;99.90;;;;;;5046795;28;20052;-74
2021/12/24 12:14:14;;;;;;;4.40;3.42;;;6.70;99.90;;;;;;5010955;28;20492;-75
2021/12/24 12:16:42;;;;;;;4.35;3.63;;;6.70;99.90;;;;;;5022499;28;20068;-75
2021/12/24 12:22:47;;;;;;;3.78;2.25;;;6.70;99.90;;;;;;5035336;28;20156;-75
2021/12/24 12:25:34;;;;;;;2.53;2.15;;;6.70;99.90;;;;;;5044962;28;20099;-75
2021/12/24 12:28:08;;;;;;;3.33;2.38;;;6.70;99.90;;;;;;5039126;28;20495;-76
2021/12/24 12:30:48;;;;;;;2.67;2.45;;;6.70;99.90;;;;;;5009651;28;20041;-76
2021/12/24 12:33:15;;;;;;;3.50;2.70;;;6.70;99.90;;;;;;5041714;28;20029;-76
2021/12/24 12:35:45;;;;;;;4.13;3.22;;;6.60;99.90;;;;;;5027775;28;20048;-76
2021/12/24 12:38:35;;;;;;;4.07;3.67;;;6.60;99.90;;;;;;5044866;28;20124;-76
2021/12/24 12:41:19;;;;;;;4.03;3.63;;;6.50;99.90;;;;;;5028972;28;20048;-75
2021/12/24 12:43:47;;;;;;;3.93;3.53;;;6.60;99.90;;;;;;5037287;28;20037;-75
2021/12/24 12:46:31;;;;;;;6.47;4.68;;;6.60;99.90;;;;;;5027093;28;20048;-75
2021/12/24 12:49:00;;;;;;;4.55;4.03;;;6.60;99.90;;;;;;5042381;28;20038;-71
2021/12/24 12:52:13;;;;;;;4.68;4.18;;;6.70;99.90;;;;;;5042833;28;20045;-71
2021/12/24 12:54:50;;;;;;;5.05;4.40;;;6.60;99.90;;;;;;4982279;28;20049;-71
2021/12/24 12:57:22;;;;;;;4.85;4.30;;;6.60;99.90;;;;;;5041183;28;20057;-71
2021/12/24 13:00:07;;;;;;;5.05;4.25;;;6.60;99.90;;;;;;5027029;28;20036;-71
2021/12/24 13:03:06;;;;;;;4.28;3.72;;;6.70;99.90;;;;;;5043049;28;20091;-71
2021/12/24 13:05:39;;;;;;;4.50;3.30;;;6.60;99.90;;;;;;5044741;28;20052;-71
2021/12/24 13:08:27;;;;;;;4.40;3.10;;;6.60;99.90;;;;;;5029121;28;20455;-71
2021/12/24 13:11:12;;;;;;;3.67;3.23;;;6.60;99.90;;;;;;5043855;28;20067;-70
2021/12/24 13:13:54;;;;;;;5.20;3.43;;;6.60;99.90;;;;;;5041781;28;20049;-72
2021/12/24 13:16:35;;;;;;;4.50;3.58;;;6.60;99.90;;;;;;5041148;28;20079;-70
2021/12/24 13:25:06;;;;;;;3.92;3.53;;;6.60;99.90;;;;;;5038838;28;20080;-74
2021/12/24 13:27:39;;;;;;;4.30;3.47;;;6.60;99.90;;;;;;5043272;28;20446;-76
2021/12/24 13:30:12;;;;;;;4.78;4.25;;;6.50;99.90;;;;;;5026185;28;20053;-73
2021/12/24 13:32:40;;;;;;;5.20;4.05;;;6.60;99.90;;;;;;5024983;28;20119;-73
2021/12/24 13:35:07;;;;;;;4.93;3.97;;;6.60;99.90;;;;;;5026507;28;20044;-75
2021/12/24 13:37:33;;;;;;;6.15;4.40;;;6.60;99.90;;;;;;5027011;28;20037;-74
2021/12/24 13:39:59;;;;;;;11.70;8.67;;;6.60;99.90;;;;;;5028293;28;20055;-76
2021/12/24 13:42:25;;;;;;;10.95;8.18;;;6.60;99.90;;;;;;5012669;28;20033;-76
2021/12/24 13:44:59;;;;;;;6.22;4.72;;;6.60;99.90;;;;;;5043583;28;20136;-73
2021/12/24 13:55:35;;;;;;;6.38;4.68;;;6.60;99.90;;;;;;5040362;28;20053;-74
2021/12/24 13:58:07;;;;;;;5.32;4.30;;;6.50;99.90;;;;;;5037651;28;20972;-74
2021/12/24 14:00:36;;;;;;;6.40;4.80;;;6.50;99.90;;;;;;5018854;28;20583;-74
2021/12/24 14:03:05;;;;;;;8.07;7.27;;;6.50;99.90;;;;;;5035846;28;20068;-74
2021/12/24 14:05:31;;;;;;;5.63;4.45;;;6.50;99.90;;;;;;5030883;28;20041;-74
2021/12/24 14:08:08;;;;;;;5.80;4.20;;;6.50;99.90;;;;;;5021559;28;20048;-74
2021/12/24 14:10:34;;;;;;;6.33;5.10;;;6.50;99.90;;;;;;5027405;28;20037;-74
2021/12/24 14:13:07;;;;;;;7.37;6.57;;;6.50;99.90;;;;;;5024656;28;20045;-74
2021/12/24 14:18:30;;;;;;;12.23;9.13;;;6.50;99.90;;;;;;5028330;28;20052;-74
2021/12/24 14:23:31;;;;;;;6.57;4.97;;;6.60;99.90;;;;;;5024563;28;20560;-74
2021/12/24 14:26:01;;;;;;;5.38;4.78;;;6.60;99.90;;;;;;5023320;28;20045;-74
2021/12/24 14:28:27;;;;;;;7.85;6.05;;;6.70;99.90;;;;;;5019037;28;20408;-74
2021/12/24 14:31:04;;;;;;;7.07;5.82;;;6.70;99.90;;;;;;5033221;28;20045;-74
2021/12/24 14:33:36;;;;;;;6.45;5.32;;;6.70;99.90;;;;;;5026108;28;20120;-74
2021/12/24 14:36:03;;;;;;;6.35;5.75;;;6.70;99.90;;;;;;5010393;28;20446;-73
2021/12/24 14:38:34;;;;;;;8.57;6.43;;;6.70;99.90;;;;;;5027664;28;20037;-74
2021/12/24 14:41:00;;;;;;;9.65;5.38;;;6.70;99.90;;;;;;5026673;28;20081;-75
2021/12/24 14:43:33;;;;;;;6.90;5.22;;;6.60;99.90;;;;;;5039898;28;20041;-75
2021/12/24 14:46:07;;;;;;;6.40;5.15;;;6.60;99.90;;;;;;5027740;28;20041;-75
2021/12/24 14:48:36;;;;;;;6.78;5.00;;;6.60;99.90;;;;;;5023089;28;20057;-74
2021/12/24 14:51:10;;;;;;;5.57;4.97;;;6.70;99.90;;;;;;5024352;28;20037;-74
2021/12/24 14:53:43;;;;;;;6.43;5.00;;;6.60;99.90;;;;;;5041596;28;20047;-74
2021/12/24 14:56:17;;;;;;;7.32;5.65;;;6.60;99.90;;;;;;5023425;28;20075;-73
2021/12/24 14:58:50;;;;;;;6.63;5.63;;;6.60;99.90;;;;;;5025315;28;20043;-74
2021/12/24 15:01:15;;;;;;;8.27;5.95;;;6.60;99.90;;;;;;5042768;28;20045;-74